Come è dislocata la flotta?

Rivolgiti qui per richiedere informazioni o parlare con lo Staff e gli Istruttori

Moderatori: Moderatori, Admins

Come è dislocata la flotta?

Messaggioda Dreamstar » 20/01/2007, 14:09

Raga come erano dislocati di default i velivoli? Ormai sono in giro per il mondo e vedo che c'è l'AXIC fermo su LIMP da un pò di tempo (nn ne conosco il motivo) e quindi pensavo oggi di farmi un volo per riportarlo alla sua base di partenza.

Ciau
Macbook Pro 17" Early-2011, Quad-Core i7 2.2, RAM 8GB, AMD Radeon HD 6750M 1024 MB
Avatar utente
Dreamstar

Comandante
 
Messaggi: 1029
Iscritto il: 30/01/2006, 12:24
Località: Napoli
Ha ringraziato: 0 volta
Stato ringraziato: 0 volta

Messaggioda fly » 20/01/2007, 15:06

Cris, i velivoli sono lì apposta per essere usati. :D
iMac 27" Core i7 2.93- Ram 8 Giga DDR3 Vram Ati Radeon 1024 Mb
XP 11xxx
fly

Comandante
 
Messaggi: 7767
Iscritto il: 10/08/2006, 13:49
Ha ringraziato: 0 volta
Stato ringraziato: 16 volte

Messaggioda Dreamstar » 20/01/2007, 16:53

LIMP 201400Z 11004KT 1500 BR SCT006 SCT015 BKN080 08/07 Q1020

mmmm mumble mumble mi sa che un VFR nel nord italia è alquanto improponibile al momento ^^
Macbook Pro 17" Early-2011, Quad-Core i7 2.2, RAM 8GB, AMD Radeon HD 6750M 1024 MB
Avatar utente
Dreamstar

Comandante
 
Messaggi: 1029
Iscritto il: 30/01/2006, 12:24
Località: Napoli
Ha ringraziato: 0 volta
Stato ringraziato: 0 volta

Messaggioda Skyro » 20/01/2007, 17:23

Dreamstar ha scritto:LIMP 201400Z 11004KT 1500 BR SCT006 SCT015 BKN080 08/07 Q1020

mmmm mumble mumble mi sa che un VFR nel nord italia è alquanto improponibile al momento ^^


Se vuoi fare un VFR qui dalle mie parti, prima dammi un colpo di telefono, te l' avrei detto io che c'è una bella nebbiolina :)
XP 10.XX = l' ultima disponibile
XP 11 quello che passa il convento
Skyro

Collaboratore
 
Messaggi: 10283
Iscritto il: 16/02/2006, 9:32
Ha ringraziato: 36 volte
Stato ringraziato: 126 volte

Messaggioda fly » 20/01/2007, 17:28

Dalle mie parti oggi era primavera con covok e clear. :D
iMac 27" Core i7 2.93- Ram 8 Giga DDR3 Vram Ati Radeon 1024 Mb
XP 11xxx
fly

Comandante
 
Messaggi: 7767
Iscritto il: 10/08/2006, 13:49
Ha ringraziato: 0 volta
Stato ringraziato: 16 volte

Messaggioda Dreamstar » 20/01/2007, 17:45

lol emanuele allora devi avere la nomina ufficiale di FLight Dispatcher :D

ps: se ci mettessimo tutti insieme a soffiare dite che le nubi arrivano sopra la testa di Fly? :D
Macbook Pro 17" Early-2011, Quad-Core i7 2.2, RAM 8GB, AMD Radeon HD 6750M 1024 MB
Avatar utente
Dreamstar

Comandante
 
Messaggi: 1029
Iscritto il: 30/01/2006, 12:24
Località: Napoli
Ha ringraziato: 0 volta
Stato ringraziato: 0 volta

Messaggioda Nik » 20/01/2007, 18:11

c'è ancora un F/A da sbloccare....chissà magari ClaF in questi giorni lo "intavola" :D
xplane sempre nel cuore
Avatar utente
Nik

Comandante
 
Messaggi: 13573
Iscritto il: 18/12/2004, 17:04
Località: Finalmente in Friuli
Ha ringraziato: 8 volte
Stato ringraziato: 33 volte

Messaggioda Dreamstar » 21/01/2007, 11:27

ok anche oggi niente vfr, il meteo su LIMP fa quasi ridere :D

LIMP 210900Z 00000KT 0150 R20/0325 FG VV003 04/04 Q1017
Macbook Pro 17" Early-2011, Quad-Core i7 2.2, RAM 8GB, AMD Radeon HD 6750M 1024 MB
Avatar utente
Dreamstar

Comandante
 
Messaggi: 1029
Iscritto il: 30/01/2006, 12:24
Località: Napoli
Ha ringraziato: 0 volta
Stato ringraziato: 0 volta


Torna a AXI Clubhouse

Chi c’è in linea

Visitano il forum: Nessuno e 1 ospite